createdAt,value
2023-05-14T00:00:41.036Z,100.00
2023-05-14T00:03:07.847Z,100.00
2023-05-14T00:05:34.615Z,100.00
2023-05-14T00:08:01.115Z,100.00
2023-05-14T00:10:28.093Z,100.00
2023-05-14T00:12:54.585Z,100.00
2023-05-14T00:15:21.476Z,100.00
2023-05-14T00:17:48.036Z,100.00
2023-05-14T00:20:14.813Z,100.00
2023-05-14T00:22:41.470Z,100.00
2023-05-14T00:25:09.561Z,100.00
2023-05-14T00:27:37.734Z,100.00
2023-05-14T00:30:06.794Z,100.00
2023-05-14T00:32:34.111Z,100.00
2023-05-14T00:35:02.995Z,100.00
2023-05-14T00:37:30.828Z,100.00
2023-05-14T00:39:57.853Z,100.00
2023-05-14T00:42:24.633Z,100.00
2023-05-14T00:44:51.135Z,100.00
2023-05-14T00:47:18.247Z,100.00
2023-05-14T00:49:45.852Z,100.00
2023-05-14T00:52:12.833Z,100.00
2023-05-14T00:54:39.923Z,100.00
2023-05-14T00:57:06.927Z,100.00
2023-05-14T00:59:34.518Z,100.00
2023-05-14T01:02:01.850Z,100.00
2023-05-14T01:04:29.248Z,100.00
2023-05-14T01:07:17.074Z,100.00
2023-05-14T01:10:08.358Z,100.00
2023-05-14T01:12:57.785Z,100.00
2023-05-14T01:15:31.853Z,100.00
2023-05-14T01:18:07.458Z,100.00
2023-05-14T01:20:34.099Z,100.00
2023-05-14T01:23:00.941Z,100.00
2023-05-14T01:25:29.719Z,100.00
2023-05-14T01:28:17.859Z,100.00
2023-05-14T01:30:56.981Z,100.00
2023-05-14T01:33:29.285Z,100.00
2023-05-14T01:35:56.632Z,100.00
2023-05-14T01:38:27.472Z,100.00
2023-05-14T01:40:56.564Z,100.00
2023-05-14T01:43:23.901Z,100.00
2023-05-14T01:45:50.646Z,100.00
2023-05-14T01:48:17.635Z,100.00
2023-05-14T01:50:44.212Z,100.00
2023-05-14T01:53:10.644Z,100.00
2023-05-14T01:55:37.149Z,100.00
2023-05-14T01:58:03.612Z,100.00
2023-05-14T02:00:30.439Z,100.00
2023-05-14T02:02:56.926Z,100.00
2023-05-14T02:05:23.482Z,100.00
2023-05-14T02:07:50.066Z,100.00
2023-05-14T02:10:16.568Z,100.00
2023-05-14T02:12:43.157Z,100.00
2023-05-14T02:15:11.010Z,100.00
2023-05-14T02:17:37.539Z,100.00
2023-05-14T02:20:04.802Z,100.00
2023-05-14T02:22:31.274Z,100.00
2023-05-14T02:24:57.797Z,100.00
2023-05-14T02:27:24.364Z,100.00
2023-05-14T02:29:50.819Z,100.00
2023-05-14T02:32:17.366Z,100.00
2023-05-14T02:34:43.853Z,100.00
2023-05-14T02:37:10.326Z,100.00
2023-05-14T02:39:36.774Z,100.00
2023-05-14T02:42:03.397Z,100.00
2023-05-14T02:44:31.727Z,100.00
2023-05-14T02:46:58.254Z,100.00
2023-05-14T02:49:24.993Z,100.00
2023-05-14T02:51:51.605Z,100.00
2023-05-14T02:54:18.088Z,100.00
2023-05-14T02:56:44.576Z,100.00
2023-05-14T02:59:11.100Z,100.00
2023-05-14T03:01:38.049Z,100.00
2023-05-14T03:04:05.392Z,100.00
2023-05-14T03:06:31.940Z,100.00
2023-05-14T03:08:58.423Z,100.00
2023-05-14T03:11:25.602Z,100.00
2023-05-14T03:13:52.085Z,100.00
2023-05-14T03:16:18.958Z,100.00
2023-05-14T03:18:45.475Z,100.00
2023-05-14T03:21:12.516Z,100.00
2023-05-14T03:23:39.153Z,100.00
2023-05-14T03:26:06.248Z,100.00
2023-05-14T03:28:32.741Z,100.00
2023-05-14T03:30:59.298Z,100.00
2023-05-14T03:33:26.050Z,100.00
2023-05-14T03:35:52.557Z,100.00
2023-05-14T03:38:19.116Z,100.00
2023-05-14T03:40:46.217Z,100.00
2023-05-14T03:43:12.703Z,100.00
2023-05-14T03:45:39.871Z,100.00
2023-05-14T03:48:06.720Z,100.00
2023-05-14T03:50:33.514Z,100.00
2023-05-14T03:53:03.300Z,100.00
2023-05-14T03:55:29.930Z,100.00
2023-05-14T03:57:56.445Z,100.00
2023-05-14T04:00:23.179Z,100.00
2023-05-14T04:02:49.974Z,100.00
2023-05-14T04:05:16.944Z,100.00
2023-05-14T04:07:45.115Z,100.00
2023-05-14T04:10:12.853Z,100.00
2023-05-14T04:12:39.370Z,100.00
2023-05-14T04:15:06.824Z,100.00
2023-05-14T04:17:34.951Z,100.00
2023-05-14T04:20:01.710Z,100.00
2023-05-14T04:22:28.189Z,100.00
2023-05-14T04:24:54.747Z,100.00
2023-05-14T04:27:22.182Z,100.00
2023-05-14T04:29:50.467Z,100.00
2023-05-14T04:32:17.695Z,100.00
2023-05-14T04:34:44.417Z,100.00
2023-05-14T04:37:10.941Z,100.00
2023-05-14T04:39:38.339Z,100.00
2023-05-14T04:42:06.607Z,100.00
2023-05-14T04:44:36.161Z,100.00
2023-05-14T04:47:02.871Z,100.00
2023-05-14T04:49:30.761Z,100.00
2023-05-14T04:51:57.342Z,100.00
2023-05-14T04:54:23.959Z,100.00
2023-05-14T04:56:51.200Z,100.00
2023-05-14T04:59:17.862Z,100.00
2023-05-14T05:01:45.323Z,100.00
2023-05-14T05:04:12.221Z,100.00
2023-05-14T05:06:39.091Z,100.00
2023-05-14T05:09:05.578Z,100.00
2023-05-14T05:11:32.093Z,100.00
2023-05-14T05:13:58.524Z,100.00
2023-05-14T05:16:25.106Z,100.00
2023-05-14T05:18:51.826Z,100.00
2023-05-14T05:21:19.365Z,100.00
2023-05-14T05:23:45.898Z,100.00
2023-05-14T05:26:12.419Z,100.00
2023-05-14T05:28:38.951Z,100.00
2023-05-14T05:31:05.685Z,100.00
2023-05-14T05:33:32.276Z,100.00
2023-05-14T05:35:58.699Z,100.00
2023-05-14T05:38:25.296Z,100.00
2023-05-14T05:40:52.283Z,100.00
2023-05-14T05:43:18.744Z,100.00
2023-05-14T05:45:45.984Z,100.00
2023-05-14T05:48:12.781Z,100.00
2023-05-14T05:50:39.272Z,100.00
2023-05-14T05:53:05.727Z,100.00
2023-05-14T05:55:32.236Z,100.00
2023-05-14T05:57:58.840Z,100.00
2023-05-14T06:00:25.696Z,100.00
2023-05-14T06:02:52.446Z,100.00
2023-05-14T06:05:19.495Z,100.00
2023-05-14T06:07:46.057Z,100.00
2023-05-14T06:10:12.583Z,100.00
2023-05-14T06:12:39.155Z,100.00
2023-05-14T06:15:06.646Z,100.00
2023-05-14T06:17:33.204Z,100.00
2023-05-14T06:19:59.815Z,100.00
2023-05-14T06:22:26.412Z,100.00
2023-05-14T06:24:52.920Z,100.00
2023-05-14T06:27:19.335Z,100.00
2023-05-14T06:29:45.941Z,100.00
2023-05-14T06:32:15.422Z,100.00
2023-05-14T06:34:42.966Z,100.00
2023-05-14T06:37:10.491Z,100.00
2023-05-14T06:39:37.952Z,100.00
2023-05-14T06:42:05.698Z,100.00
2023-05-14T06:44:32.710Z,100.00
2023-05-14T06:46:59.341Z,100.00
2023-05-14T06:49:26.135Z,100.00
2023-05-14T06:51:53.740Z,100.00
2023-05-14T06:54:20.595Z,100.00
2023-05-14T06:56:47.133Z,100.00
2023-05-14T06:59:13.769Z,100.00
2023-05-14T07:01:40.925Z,100.00
2023-05-14T07:04:07.718Z,100.00
2023-05-14T07:06:34.784Z,100.00
2023-05-14T07:09:02.214Z,100.00
2023-05-14T07:11:28.902Z,100.00
2023-05-14T07:13:55.532Z,100.00
2023-05-14T07:16:22.162Z,100.00
2023-05-14T07:18:48.796Z,100.00
2023-05-14T07:21:15.425Z,98.83
2023-05-14T07:23:41.900Z,97.92
2023-05-14T07:26:08.932Z,100.00
2023-05-14T07:28:35.729Z,91.31
2023-05-14T07:31:08.587Z,86.02
2023-05-14T07:33:36.438Z,83.60
2023-05-14T07:36:03.031Z,89.91
2023-05-14T07:38:29.792Z,81.16
2023-05-14T07:40:56.426Z,83.33
2023-05-14T07:43:23.055Z,83.82
2023-05-14T07:45:49.700Z,81.61
2023-05-14T07:48:16.376Z,77.48
2023-05-14T07:50:43.069Z,77.37
2023-05-14T07:53:09.576Z,80.92
2023-05-14T07:55:36.472Z,81.88
2023-05-14T07:58:03.040Z,89.99
2023-05-14T08:00:29.615Z,79.73
2023-05-14T08:02:56.352Z,86.24
2023-05-14T08:05:23.012Z,83.91
2023-05-14T08:07:49.477Z,90.86
2023-05-14T08:10:16.023Z,83.74
2023-05-14T08:12:42.843Z,91.84
2023-05-14T08:15:10.149Z,97.74
2023-05-14T08:17:36.826Z,92.56
2023-05-14T08:20:06.403Z,95.34
2023-05-14T08:22:33.052Z,84.41
2023-05-14T08:25:00.925Z,83.77
2023-05-14T08:27:28.041Z,90.74
2023-05-14T08:29:54.488Z,88.57
2023-05-14T08:32:23.742Z,83.67
2023-05-14T08:34:51.584Z,73.27
2023-05-14T08:37:18.464Z,74.75
2023-05-14T08:39:45.139Z,84.45
2023-05-14T08:42:15.518Z,69.32
2023-05-14T08:44:53.217Z,69.92
2023-05-14T08:47:23.953Z,70.53
2023-05-14T08:50:04.519Z,66.77
2023-05-14T08:52:31.896Z,75.63
2023-05-14T08:55:04.167Z,76.32
2023-05-14T08:57:33.248Z,71.45
2023-05-14T09:00:00.322Z,80.64
2023-05-14T09:02:31.409Z,68.82
2023-05-14T09:05:02.464Z,73.25
2023-05-14T09:07:29.163Z,62.80
2023-05-14T09:09:55.840Z,71.74
2023-05-14T09:12:22.616Z,63.76
2023-05-14T09:14:50.962Z,69.07
2023-05-14T09:17:18.894Z,68.27
2023-05-14T09:19:49.257Z,70.04
2023-05-14T09:22:18.542Z,68.91
2023-05-14T09:24:45.751Z,64.98
2023-05-14T09:27:21.240Z,62.33
2023-05-14T09:29:48.474Z,67.92
2023-05-14T09:32:15.030Z,67.89
2023-05-14T09:34:42.150Z,62.77
2023-05-14T09:37:10.224Z,60.63
2023-05-14T09:39:38.334Z,64.05
2023-05-14T09:42:06.040Z,65.55
2023-05-14T09:44:32.713Z,61.20
2023-05-14T09:46:59.483Z,61.24
2023-05-14T09:49:26.050Z,67.14
2023-05-14T09:51:52.919Z,67.70
2023-05-14T09:54:19.600Z,61.86
2023-05-14T09:56:46.161Z,59.80
2023-05-14T09:59:13.159Z,60.38
2023-05-14T10:01:43.668Z,59.48
2023-05-14T10:04:12.415Z,60.89
2023-05-14T10:06:42.129Z,57.13
2023-05-14T10:09:16.235Z,58.11
2023-05-14T10:11:47.439Z,53.23
2023-05-14T10:14:26.695Z,64.50
2023-05-14T10:16:58.287Z,57.72
2023-05-14T10:19:26.376Z,54.89
2023-05-14T10:22:04.289Z,59.85
2023-05-14T10:24:32.935Z,58.65
2023-05-14T10:27:00.795Z,58.21
2023-05-14T10:29:37.799Z,55.54
2023-05-14T10:32:08.358Z,59.35
2023-05-14T10:34:38.181Z,55.55
2023-05-14T10:37:10.042Z,58.39
2023-05-14T10:39:54.734Z,58.30
2023-05-14T10:42:33.151Z,56.73
2023-05-14T10:45:07.188Z,56.03
2023-05-14T10:47:37.220Z,53.79
2023-05-14T10:50:07.936Z,55.20
2023-05-14T10:52:35.705Z,59.65
2023-05-14T10:55:07.676Z,57.24
2023-05-14T10:57:38.305Z,58.54
2023-05-14T11:00:08.796Z,55.09
2023-05-14T11:02:38.644Z,54.48
2023-05-14T11:05:11.367Z,52.29
2023-05-14T11:07:42.280Z,51.01
2023-05-14T11:10:20.143Z,55.65
2023-05-14T11:12:50.848Z,51.47
2023-05-14T11:15:21.907Z,51.82
2023-05-14T11:17:51.038Z,49.91
2023-05-14T11:20:19.589Z,50.66
2023-05-14T11:22:48.967Z,50.52
2023-05-14T11:25:15.909Z,46.52
2023-05-14T11:27:45.960Z,49.72
2023-05-14T11:30:13.458Z,45.48
2023-05-14T11:32:40.943Z,51.74
2023-05-14T11:35:08.244Z,47.29
2023-05-14T11:37:34.778Z,48.26
2023-05-14T11:40:01.787Z,44.94
2023-05-14T11:42:28.396Z,45.71
2023-05-14T11:44:55.097Z,48.80
2023-05-14T11:47:23.060Z,46.77
2023-05-14T11:49:49.888Z,50.92
2023-05-14T11:52:19.296Z,49.19
2023-05-14T11:54:46.589Z,49.78
2023-05-14T11:57:19.443Z,57.47
2023-05-14T11:59:47.935Z,48.78
2023-05-14T12:02:18.481Z,54.24
2023-05-14T12:04:52.240Z,57.52
2023-05-14T12:07:19.005Z,57.01
2023-05-14T12:09:49.662Z,53.57
2023-05-14T12:12:22.561Z,54.60
2023-05-14T12:14:50.959Z,53.38
2023-05-14T12:17:22.800Z,51.74
2023-05-14T12:19:53.703Z,51.69
2023-05-14T12:22:22.924Z,50.67
2023-05-14T12:24:56.776Z,48.42
2023-05-14T12:27:26.415Z,48.21
2023-05-14T12:30:20.072Z,45.86
2023-05-14T12:32:51.352Z,46.09
2023-05-14T12:35:18.530Z,48.91
2023-05-14T12:37:44.983Z,48.00
2023-05-14T12:40:11.946Z,49.03
2023-05-14T12:42:38.379Z,47.15
2023-05-14T12:45:07.746Z,46.65
2023-05-14T12:47:34.546Z,44.81
2023-05-14T12:50:01.294Z,50.53
2023-05-14T12:52:37.718Z,51.06
2023-05-14T12:55:07.225Z,50.27
2023-05-14T12:57:35.453Z,49.54
2023-05-14T13:00:07.051Z,46.46
2023-05-14T13:02:42.021Z,43.15
2023-05-14T13:05:11.526Z,42.89
2023-05-14T13:07:38.795Z,45.52
2023-05-14T13:10:06.670Z,43.54
2023-05-14T13:12:33.421Z,42.42
2023-05-14T13:14:59.891Z,45.61
2023-05-14T13:17:26.609Z,45.12
2023-05-14T13:19:53.171Z,45.18
2023-05-14T13:22:19.579Z,46.02
2023-05-14T13:24:46.349Z,44.77
2023-05-14T13:27:13.036Z,46.49
2023-05-14T13:29:39.535Z,48.02
2023-05-14T13:32:06.536Z,51.77
2023-05-14T13:34:32.996Z,46.14
2023-05-14T13:36:59.739Z,46.72
2023-05-14T13:39:27.208Z,47.13
2023-05-14T13:41:56.714Z,49.05
2023-05-14T13:44:23.729Z,44.59
2023-05-14T13:46:50.639Z,44.90
2023-05-14T13:49:17.333Z,44.19
2023-05-14T13:51:43.989Z,45.00
2023-05-14T13:54:10.478Z,43.91
2023-05-14T13:56:37.007Z,43.93
2023-05-14T13:59:03.985Z,43.78
2023-05-14T14:01:31.025Z,42.85
2023-05-14T14:03:57.789Z,45.29
2023-05-14T14:06:27.236Z,47.18
2023-05-14T14:08:54.049Z,44.70
2023-05-14T14:11:20.715Z,43.17
2023-05-14T14:13:47.122Z,43.64
2023-05-14T14:16:13.652Z,41.53
2023-05-14T14:18:40.260Z,40.70
2023-05-14T14:21:06.914Z,45.59
2023-05-14T14:23:33.342Z,44.28
2023-05-14T14:26:00.993Z,41.21
2023-05-14T14:28:27.432Z,42.08
2023-05-14T14:30:54.058Z,44.31
2023-05-14T14:33:20.621Z,48.82
2023-05-14T14:35:47.200Z,44.62
2023-05-14T14:38:14.038Z,43.70
2023-05-14T14:40:40.681Z,45.79
2023-05-14T14:43:07.196Z,45.59
2023-05-14T14:45:33.774Z,49.42
2023-05-14T14:48:37.937Z,50.90
2023-05-14T14:51:07.877Z,51.88
2023-05-14T14:53:36.945Z,47.74
2023-05-14T14:56:04.363Z,45.81
2023-05-14T14:58:31.149Z,47.47
2023-05-14T15:00:58.783Z,48.58
2023-05-14T15:03:25.943Z,48.08
2023-05-14T15:05:53.624Z,48.59
2023-05-14T15:08:27.454Z,50.90
2023-05-14T15:10:56.254Z,46.92
2023-05-14T15:13:23.237Z,50.66
2023-05-14T15:15:51.706Z,53.48
2023-05-14T15:18:18.315Z,50.85
2023-05-14T15:20:44.872Z,52.66
2023-05-14T15:23:11.659Z,55.47
2023-05-14T15:25:38.418Z,52.98
2023-05-14T15:28:07.370Z,55.13
2023-05-14T15:30:34.066Z,62.83
2023-05-14T15:33:00.911Z,72.87
2023-05-14T15:35:27.873Z,85.62
2023-05-14T15:37:57.447Z,100.00
2023-05-14T15:40:24.179Z,100.00
2023-05-14T15:42:50.874Z,100.00
2023-05-14T15:45:17.464Z,100.00
2023-05-14T15:47:44.995Z,100.00
2023-05-14T15:50:12.249Z,100.00
2023-05-14T15:52:39.756Z,100.00
2023-05-14T15:55:06.990Z,100.00
2023-05-14T15:57:34.471Z,100.00
2023-05-14T16:00:01.444Z,100.00
2023-05-14T16:02:30.350Z,100.00
2023-05-14T16:04:57.082Z,100.00
2023-05-14T16:07:23.538Z,100.00
2023-05-14T16:09:49.946Z,100.00
2023-05-14T16:12:16.485Z,100.00
2023-05-14T16:14:45.046Z,100.00
2023-05-14T16:17:11.769Z,100.00
2023-05-14T16:19:39.718Z,100.00
2023-05-14T16:22:06.501Z,100.00
2023-05-14T16:24:33.291Z,100.00
2023-05-14T16:27:00.647Z,100.00
2023-05-14T16:29:27.782Z,100.00
2023-05-14T16:31:54.933Z,100.00
2023-05-14T16:34:21.537Z,100.00
2023-05-14T16:36:48.208Z,100.00
2023-05-14T16:39:14.747Z,100.00
2023-05-14T16:41:41.345Z,100.00
2023-05-14T16:44:07.850Z,100.00
2023-05-14T16:46:34.589Z,100.00
2023-05-14T16:49:02.430Z,100.00
2023-05-14T16:51:29.015Z,100.00
2023-05-14T16:53:55.846Z,100.00
2023-05-14T16:56:22.523Z,100.00
2023-05-14T16:58:50.098Z,100.00
2023-05-14T17:01:16.568Z,100.00
2023-05-14T17:03:44.495Z,100.00
2023-05-14T17:06:11.302Z,100.00
2023-05-14T17:08:37.757Z,100.00
2023-05-14T17:11:05.897Z,100.00
2023-05-14T17:13:33.024Z,100.00
2023-05-14T17:16:00.835Z,100.00
2023-05-14T17:18:28.138Z,100.00
2023-05-14T17:20:54.805Z,100.00
2023-05-14T17:23:21.403Z,100.00
2023-05-14T17:25:47.950Z,100.00
2023-05-14T17:28:14.771Z,100.00
2023-05-14T17:30:41.350Z,100.00
2023-05-14T17:33:07.884Z,100.00
2023-05-14T17:35:36.211Z,100.00
2023-05-14T17:38:03.342Z,100.00
2023-05-14T17:40:29.841Z,100.00
2023-05-14T17:42:56.324Z,100.00
2023-05-14T17:45:22.994Z,100.00
2023-05-14T17:47:51.187Z,100.00
2023-05-14T17:50:18.654Z,100.00
2023-05-14T17:52:46.101Z,100.00
2023-05-14T17:55:12.710Z,100.00
2023-05-14T17:57:39.339Z,100.00
2023-05-14T18:00:07.531Z,100.00
2023-05-14T18:02:34.193Z,100.00
2023-05-14T18:05:02.610Z,100.00
2023-05-14T18:07:30.816Z,100.00
2023-05-14T18:09:58.135Z,100.00
2023-05-14T18:12:26.596Z,100.00
2023-05-14T18:14:53.875Z,100.00
2023-05-14T18:17:20.698Z,100.00
2023-05-14T18:19:47.540Z,100.00
2023-05-14T18:22:14.173Z,100.00
2023-05-14T18:24:40.759Z,100.00
2023-05-14T18:27:07.329Z,100.00
2023-05-14T18:29:33.832Z,100.00
2023-05-14T18:32:00.327Z,100.00
2023-05-14T18:34:26.831Z,100.00
2023-05-14T18:36:54.517Z,100.00
2023-05-14T18:39:21.002Z,100.00
2023-05-14T18:41:47.577Z,100.00
2023-05-14T18:44:14.143Z,100.00
2023-05-14T18:46:43.326Z,100.00
2023-05-14T18:49:09.858Z,100.00
2023-05-14T18:51:36.313Z,100.00
2023-05-14T18:54:03.182Z,100.00
2023-05-14T18:56:29.655Z,100.00
2023-05-14T18:58:56.136Z,100.00
2023-05-14T19:01:25.299Z,100.00
2023-05-14T19:03:53.015Z,100.00
2023-05-14T19:06:20.179Z,100.00
2023-05-14T19:08:46.705Z,100.00
2023-05-14T19:11:13.203Z,100.00
2023-05-14T19:13:39.729Z,100.00
2023-05-14T19:16:06.888Z,100.00
2023-05-14T19:18:34.312Z,100.00
2023-05-14T19:21:00.876Z,100.00
2023-05-14T19:23:27.310Z,100.00
2023-05-14T19:25:54.296Z,100.00
2023-05-14T19:28:21.251Z,100.00
2023-05-14T19:30:47.808Z,100.00
2023-05-14T19:33:14.459Z,100.00
2023-05-14T19:35:40.940Z,100.00
2023-05-14T19:38:09.034Z,100.00
2023-05-14T19:40:35.547Z,100.00
2023-05-14T19:43:02.236Z,100.00
2023-05-14T19:45:28.796Z,100.00
2023-05-14T19:47:55.466Z,100.00
2023-05-14T19:50:22.016Z,100.00
2023-05-14T19:52:48.780Z,100.00
2023-05-14T19:55:15.238Z,100.00
2023-05-14T19:57:41.752Z,100.00
2023-05-14T20:00:09.170Z,100.00
2023-05-14T20:02:35.750Z,100.00
2023-05-14T20:05:02.294Z,100.00
2023-05-14T20:07:29.369Z,100.00
2023-05-14T20:09:55.882Z,100.00
2023-05-14T20:12:22.332Z,100.00
2023-05-14T20:14:48.783Z,100.00
2023-05-14T20:17:15.477Z,100.00
2023-05-14T20:19:43.633Z,100.00
2023-05-14T20:22:10.265Z,100.00
2023-05-14T20:24:36.755Z,100.00
2023-05-14T20:27:03.254Z,100.00
2023-05-14T20:29:29.912Z,100.00
2023-05-14T20:31:56.813Z,100.00
2023-05-14T20:34:23.298Z,100.00
2023-05-14T20:36:50.188Z,100.00
2023-05-14T20:39:16.691Z,100.00
2023-05-14T20:41:45.398Z,100.00
2023-05-14T20:44:11.818Z,100.00
2023-05-14T20:46:38.774Z,100.00
2023-05-14T20:49:05.387Z,100.00
2023-05-14T20:51:32.584Z,100.00
2023-05-14T20:53:59.020Z,100.00
2023-05-14T20:56:26.406Z,100.00
2023-05-14T20:58:52.970Z,100.00
2023-05-14T21:01:19.687Z,100.00
2023-05-14T21:03:46.377Z,100.00
2023-05-14T21:06:13.007Z,100.00
2023-05-14T21:08:40.353Z,100.00
2023-05-14T21:11:06.801Z,100.00
2023-05-14T21:13:33.314Z,100.00
2023-05-14T21:16:00.400Z,100.00
2023-05-14T21:18:30.579Z,100.00
2023-05-14T21:20:57.041Z,100.00
2023-05-14T21:23:23.580Z,100.00
2023-05-14T21:25:50.351Z,100.00
2023-05-14T21:28:16.808Z,100.00
2023-05-14T21:30:43.323Z,100.00
2023-05-14T21:33:09.836Z,100.00
2023-05-14T21:35:36.421Z,100.00
2023-05-14T21:38:03.014Z,100.00
2023-05-14T21:40:29.475Z,100.00
2023-05-14T21:42:55.978Z,100.00
2023-05-14T21:45:23.570Z,100.00
2023-05-14T21:47:50.594Z,100.00
2023-05-14T21:50:17.189Z,100.00
2023-05-14T21:52:43.614Z,100.00
2023-05-14T21:55:10.345Z,100.00
2023-05-14T21:57:36.915Z,100.00
2023-05-14T22:00:10.488Z,100.00
2023-05-14T22:02:37.046Z,100.00
2023-05-14T22:05:03.834Z,100.00
2023-05-14T22:07:32.803Z,100.00
2023-05-14T22:09:59.774Z,100.00
2023-05-14T22:12:26.701Z,100.00
2023-05-14T22:14:53.235Z,100.00
2023-05-14T22:17:19.739Z,100.00
2023-05-14T22:19:46.332Z,100.00
2023-05-14T22:22:12.745Z,100.00
2023-05-14T22:24:39.166Z,100.00
2023-05-14T22:27:06.209Z,100.00
2023-05-14T22:29:32.708Z,100.00
2023-05-14T22:31:59.439Z,100.00
2023-05-14T22:34:26.171Z,100.00
2023-05-14T22:36:52.848Z,100.00
2023-05-14T22:39:19.271Z,100.00
2023-05-14T22:41:45.968Z,100.00
2023-05-14T22:44:12.479Z,100.00
2023-05-14T22:46:38.933Z,100.00
2023-05-14T22:49:05.807Z,100.00
2023-05-14T22:51:32.683Z,100.00
2023-05-14T22:53:59.209Z,100.00
2023-05-14T22:56:25.729Z,100.00
2023-05-14T22:58:52.201Z,100.00
2023-05-14T23:01:18.749Z,100.00
2023-05-14T23:03:45.390Z,100.00
2023-05-14T23:06:14.372Z,100.00
2023-05-14T23:08:40.963Z,100.00
2023-05-14T23:11:07.713Z,100.00
2023-05-14T23:13:34.303Z,100.00
2023-05-14T23:16:01.687Z,100.00
2023-05-14T23:18:28.306Z,100.00
2023-05-14T23:20:55.079Z,100.00
2023-05-14T23:23:21.679Z,100.00
2023-05-14T23:25:50.150Z,100.00
2023-05-14T23:28:17.816Z,100.00
2023-05-14T23:30:45.567Z,100.00
2023-05-14T23:33:12.227Z,100.00
2023-05-14T23:35:40.173Z,100.00
2023-05-14T23:38:07.332Z,100.00
2023-05-14T23:40:34.503Z,100.00
2023-05-14T23:43:01.029Z,100.00
2023-05-14T23:45:28.181Z,100.00
2023-05-14T23:47:58.259Z,100.00
2023-05-14T23:50:25.703Z,100.00
2023-05-14T23:52:54.612Z,100.00
2023-05-14T23:55:22.843Z,100.00
2023-05-14T23:57:49.827Z,100.00
